Weather at TGP Heliport [CLOSED]

Public forecast

Using degrees Fahrenheit for public forecast. Weather courtesy of forecast.io.

Closest aviation weather report (METAR) to TGP Heliport

Closest report is Lebanon Springfield Airport, 15.1 nm (28.0 km) NNE. Retrieved 2021/06/13 11:10 UTC (0 seconds ago):

K6I2 131110Z AUTO 14004KT 10SM CLR 21/21 A2991 RMK AO2

Closest aviation forecast (TAF) to TGP Heliport

Forecast is more than 12 hours old.

Closest forecast is Godman Army Air Field, 40.4 nm (74.9 km) NW. Retrieved 2021/06/11 19:06 UTC (2 days ago):

TAF KFTK 111900Z 1119/1301 29006KT 9999 VCSH BKN025 BKN050 BKN200 QNH2976INS TEMPO 1121/1203 31010KT 9000 -SHRA VCTS BKN025CB OVC030 BECMG 1203/1204 VRB06KT 9999 FEW030 SCT065 QNH2979INS TX31/1220Z TN21/1211Z LAST NO AMDS AFT1203 NEXT 1411